Time;durP1;ratioP1;P1;durP2;ratioP2;P2;SDS_P1;SDS_P2;PMS_P1;PMS_P2;Temp;Humidity;BMP_temperature;BMP_pressure;BME280_temperature;BME280_humidity;BME280_pressure;Samples;Min_cycle;Max_cycle;Signal;HPM_P1;HPM_P2
2021/10/07 00:00:05;;;;;;;5.13;2.47;;;;;;;13.66;72.38;97964.19;5043862;28;20412;-84
2021/10/07 00:02:31;;;;;;;3.83;2.40;;;;;;;13.55;72.50;97940.72;5042122;28;20515;-84
2021/10/07 00:04:56;;;;;;;8.77;2.78;;;;;;;13.49;73.08;97930.41;5044366;28;20075;-84
2021/10/07 00:07:22;;;;;;;7.43;2.58;;;;;;;13.51;73.29;97933.84;5066083;28;20036;-83
2021/10/07 00:09:47;;;;;;;5.88;2.47;;;;;;;13.46;73.63;97941.34;5046672;28;20031;-83
2021/10/07 00:12:13;;;;;;;4.05;2.50;;;;;;;13.22;73.91;97910.75;5046659;28;20027;-83
2021/10/07 00:14:38;;;;;;;6.65;2.58;;;;;;;13.36;73.94;97937.56;5048074;28;20037;-84
2021/10/07 00:17:04;;;;;;;4.93;2.58;;;;;;;13.41;74.04;97951.53;5042370;28;20025;-84
2021/10/07 00:19:29;;;;;;;3.60;2.40;;;;;;;13.33;74.15;97935.06;5047481;28;20166;-84
2021/10/07 00:21:55;;;;;;;5.20;2.13;;;;;;;13.43;74.11;97936.19;5052055;28;20062;-84
2021/10/07 00:24:21;;;;;;;4.00;2.33;;;;;;;13.34;74.48;97925.19;5048148;28;20025;-83
2021/10/07 00:26:47;;;;;;;6.38;2.22;;;;;;;13.30;74.57;97912.91;5050552;28;20025;-84
2021/10/07 00:32:09;;;;;;;5.10;2.90;;;;;;;13.36;74.90;97908.00;5064277;28;20030;-84
2021/10/07 00:35:23;;;;;;;9.20;2.70;;;;;;;13.31;75.26;97915.50;5052128;28;20060;-84
2021/10/07 00:40:05;;;;;;;10.80;2.90;;;;;;;13.19;75.26;97902.91;5065616;28;20020;-84
2021/10/07 00:42:32;;;;;;;10.63;3.33;;;;;;;13.03;74.82;97889.59;5065433;28;20072;-83
2021/10/07 00:44:58;;;;;;;7.40;4.18;;;;;;;12.87;74.19;97885.31;5051221;28;20111;-84
2021/10/07 00:47:23;;;;;;;9.43;4.40;;;;;;;12.75;74.77;97905.78;5049969;28;20111;-83
2021/10/07 00:49:49;;;;;;;7.00;4.70;;;;;;;12.59;75.31;97898.81;5053097;28;20029;-83
2021/10/07 00:52:17;;;;;;;7.85;4.90;;;;;;;12.68;75.11;97917.00;5048416;28;20032;-84
2021/10/07 00:54:45;;;;;;;11.75;4.63;;;;;;;12.63;75.51;97924.50;5048405;28;20016;-84
2021/10/07 00:57:16;;;;;;;7.68;4.53;;;;;;;12.57;75.60;97922.22;5049671;28;20024;-84
2021/10/07 00:59:42;;;;;;;9.98;4.95;;;;;;;12.47;76.16;97916.56;5044492;28;20075;-84
2021/10/07 01:02:08;;;;;;;7.65;4.82;;;;;;;12.49;75.91;97915.50;5038637;28;20381;-84
2021/10/07 01:04:35;;;;;;;8.45;4.20;;;;;;;12.41;76.19;97896.38;5045198;28;22003;-84
2021/10/07 01:07:02;;;;;;;7.03;3.78;;;;;;;12.43;76.80;97883.69;5045198;28;20458;-84
2021/10/07 01:09:29;;;;;;;9.85;4.18;;;;;;;12.28;76.89;97843.56;5040750;28;20028;-84
2021/10/07 01:11:55;;;;;;;11.18;3.58;;;;;;;12.62;76.82;97882.50;5047244;28;20028;-84
2021/10/07 01:14:52;;;;;;;8.13;4.32;;;;;;;12.74;76.31;97900.50;5046695;28;20480;-84
2021/10/07 01:17:20;;;;;;;9.30;3.70;;;;;;;12.69;76.32;97891.91;5060737;28;20036;-84
2021/10/07 01:19:47;;;;;;;9.30;4.20;;;;;;;12.68;76.68;97899.09;5062221;28;20025;-84
2021/10/07 01:22:14;;;;;;;8.43;4.32;;;;;;;12.61;77.28;97905.84;5045767;28;20107;-84
2021/10/07 01:24:39;;;;;;;8.27;4.28;;;;;;;12.42;78.00;97892.72;5042238;28;20408;-84
2021/10/07 01:27:05;;;;;;;6.43;3.95;;;;;;;12.42;77.61;97898.09;5060592;28;20021;-83
2021/10/07 01:29:31;;;;;;;8.73;4.18;;;;;;;12.27;77.60;97887.47;5040721;28;20036;-85
2021/10/07 01:31:57;;;;;;;12.43;3.95;;;;;;;12.27;78.63;97899.06;5045108;28;20432;-84
2021/10/07 01:34:25;;;;;;;10.18;4.55;;;;;;;12.18;78.77;97886.22;5044382;28;20059;-85
2021/10/07 01:36:50;;;;;;;7.68;4.40;;;;;;;12.15;79.50;97882.88;5041218;28;20085;-84
2021/10/07 01:39:16;;;;;;;11.55;4.70;;;;;;;11.93;80.95;97883.34;5049665;28;20380;-84
2021/10/07 01:41:42;;;;;;;9.65;4.90;;;;;;;11.72;81.24;97853.34;5043839;28;20095;-84
2021/10/07 01:44:07;;;;;;;7.78;4.47;;;;;;;11.75;81.76;97874.59;5043129;28;20411;-84
2021/10/07 01:46:33;;;;;;;8.55;4.57;;;;;;;11.75;82.21;97889.84;5048854;28;20028;-84
2021/10/07 01:49:00;;;;;;;13.35;4.80;;;;;;;11.62;82.83;97888.84;5049879;28;20103;-84
2021/10/07 01:51:26;;;;;;;7.05;4.45;;;;;;;11.59;83.33;97873.81;5044658;28;20021;-85
2021/10/07 01:53:51;;;;;;;8.82;5.05;;;;;;;11.65;82.45;97891.31;5044163;28;20031;-84
2021/10/07 01:56:17;;;;;;;9.32;4.70;;;;;;;11.54;83.18;97875.88;5046723;28;20102;-83
2021/10/07 01:58:43;;;;;;;9.02;4.82;;;;;;;11.54;83.45;97881.25;5046015;28;20028;-82
2021/10/07 02:01:09;;;;;;;7.70;5.18;;;;;;;11.58;83.44;97900.69;5043858;28;20054;-84
2021/10/07 02:03:34;;;;;;;8.20;4.40;;;;;;;11.36;83.83;97868.97;5045488;28;20094;-84
2021/10/07 02:06:00;;;;;;;10.05;4.85;;;;;;;11.36;85.31;97891.25;5045308;28;20035;-83
2021/10/07 02:08:26;;;;;;;8.65;5.07;;;;;;;11.23;86.71;97886.72;5047031;28;20036;-84
2021/10/07 02:10:51;;;;;;;7.55;5.15;;;;;;;11.26;86.72;97887.38;5039764;28;20025;-86
2021/10/07 02:13:17;;;;;;;7.53;4.93;;;;;;;11.17;86.95;97879.91;5043444;28;20085;-83
2021/10/07 02:15:42;;;;;;;9.57;5.45;;;;;;;11.03;88.10;97879.88;5040099;28;20114;-84
2021/10/07 02:18:08;;;;;;;9.43;5.07;;;;;;;11.19;86.84;97883.38;5058836;28;20025;-84
2021/10/07 02:20:34;;;;;;;9.63;5.07;;;;;;;10.95;87.46;97865.22;5038216;28;20048;-83
2021/10/07 02:22:59;;;;;;;9.98;4.75;;;;;;;11.00;88.03;97885.41;5041969;28;20029;-84
2021/10/07 02:25:25;;;;;;;10.38;5.40;;;;;;;10.87;88.80;97884.38;5038126;28;20116;-84
2021/10/07 02:27:50;;;;;;;9.32;5.50;;;;;;;10.72;90.52;97906.66;5040700;28;20054;-83
2021/10/07 02:30:17;;;;;;;15.38;7.13;;;;;;;10.46;92.32;97907.28;5041962;28;20037;-83
2021/10/07 02:32:43;;;;;;;14.40;7.75;;;;;;;10.43;93.07;97905.59;5055855;28;20116;-84
2021/10/07 02:35:08;;;;;;;23.50;8.82;;;;;;;10.34;93.91;97912.34;5041300;28;20523;-84
2021/10/07 02:37:35;;;;;;;15.77;8.15;;;;;;;10.21;94.83;97905.94;5056898;28;20488;-84
2021/10/07 02:40:00;;;;;;;18.65;8.13;;;;;;;10.10;95.21;97892.28;5042496;28;20067;-83
2021/10/07 02:42:26;;;;;;;13.38;8.43;;;;;;;10.06;96.50;97900.56;5039163;28;20079;-84
2021/10/07 02:44:52;;;;;;;14.52;7.15;;;;;;;10.04;96.41;97891.72;5043122;28;20056;-84
2021/10/07 02:47:17;;;;;;;13.35;7.35;;;;;;;9.86;97.24;97871.34;5040905;28;20482;-83
2021/10/07 02:49:43;;;;;;;12.55;7.30;;;;;;;9.94;97.64;97888.69;5046654;28;20020;-83
2021/10/07 02:52:09;;;;;;;12.10;6.70;;;;;;;9.83;98.23;97872.38;5043791;28;20090;-84
2021/10/07 02:54:34;;;;;;;19.92;8.10;;;;;;;9.92;98.35;97890.59;5038475;28;20082;-84
2021/10/07 02:57:00;;;;;;;15.18;7.80;;;;;;;9.80;98.46;97877.91;5047960;28;20056;-84
2021/10/07 02:59:25;;;;;;;14.73;7.75;;;;;;;9.89;98.84;97892.56;5043401;28;20028;-84
2021/10/07 03:01:51;;;;;;;17.70;8.50;;;;;;;9.72;98.77;97874.78;5041228;28;20051;-83
2021/10/07 03:04:16;;;;;;;18.00;7.43;;;;;;;9.81;99.26;97888.47;5059064;28;20033;-83
2021/10/07 03:06:42;;;;;;;13.52;7.50;;;;;;;9.79;99.29;97886.84;5044528;28;20033;-83
2021/10/07 03:09:08;;;;;;;14.27;7.57;;;;;;;9.57;99.36;97840.84;5039780;28;20039;-84
2021/10/07 03:11:34;;;;;;;18.92;7.88;;;;;;;9.80;99.75;97878.75;5040491;28;20527;-85
2021/10/07 03:14:00;;;;;;;13.23;6.82;;;;;;;9.60;99.20;97827.34;5043219;28;20041;-83
2021/10/07 03:16:25;;;;;;;15.88;7.38;;;;;;;9.85;99.43;97867.81;5060655;28;20030;-84
2021/10/07 03:18:51;;;;;;;16.00;7.07;;;;;;;9.73;99.93;97860.47;5066214;28;20101;-84
2021/10/07 03:21:16;;;;;;;22.17;8.98;;;;;;;9.72;99.83;97858.75;5042183;28;20506;-84
2021/10/07 03:23:42;;;;;;;15.10;8.57;;;;;;;9.81;99.98;97874.28;5038514;28;20033;-84
2021/10/07 03:26:08;;;;;;;13.02;8.07;;;;;;;9.76;100.00;97881.66;5044256;28;20029;-84
2021/10/07 03:28:33;;;;;;;18.90;8.85;;;;;;;9.79;100.00;97887.72;5044405;28;20562;-83
2021/10/07 03:30:59;;;;;;;16.30;9.45;;;;;;;9.79;100.00;97876.16;5043648;28;20048;-84
2021/10/07 03:33:24;;;;;;;20.00;8.38;;;;;;;9.76;100.00;97887.00;5062401;28;20028;-84
2021/10/07 03:35:50;;;;;;;17.02;7.95;;;;;;;9.68;100.00;97876.75;5050104;28;20020;-84
2021/10/07 03:38:15;;;;;;;13.48;8.25;;;;;;;9.50;100.00;97855.50;5041331;28;20021;-84
2021/10/07 03:40:41;;;;;;;15.75;8.10;;;;;;;9.34;100.00;97826.06;5048535;28;20496;-85
2021/10/07 03:43:06;;;;;;;19.40;10.38;;;;;;;9.60;100.00;97883.41;5050275;28;20063;-84
2021/10/07 03:45:32;;;;;;;18.02;10.07;;;;;;;9.46;100.00;97865.47;5045957;28;20044;-84
2021/10/07 03:48:16;;;;;;;19.38;11.05;;;;;;;9.55;100.00;97891.69;5052456;28;20055;-84
2021/10/07 03:50:42;;;;;;;20.50;9.63;;;;;;;9.44;100.00;97871.84;5044599;28;20057;-84
2021/10/07 03:53:08;;;;;;;22.42;9.40;;;;;;;9.40;100.00;97888.94;5046158;28;20021;-84
2021/10/07 03:55:33;;;;;;;18.95;8.68;;;;;;;9.36;100.00;97887.38;5049960;28;20086;-84
2021/10/07 03:58:00;;;;;;;15.73;9.10;;;;;;;9.19;100.00;97875.78;5066178;28;20020;-84
2021/10/07 04:00:27;;;;;;;20.15;8.82;;;;;;;9.40;100.00;97915.66;5048634;28;20029;-85
2021/10/07 04:02:53;;;;;;;16.08;9.57;;;;;;;9.27;100.00;97892.25;5050345;28;20113;-82
2021/10/07 04:05:18;;;;;;;19.70;10.30;;;;;;;9.23;100.00;97884.47;5046709;28;20059;-85
2021/10/07 04:07:44;;;;;;;18.63;10.75;;;;;;;9.37;100.00;97908.66;5052874;28;20416;-85
2021/10/07 04:10:10;;;;;;;15.60;9.50;;;;;;;9.47;100.00;97917.94;5073071;28;20039;-86
2021/10/07 04:12:36;;;;;;;25.13;10.13;;;;;;;9.39;100.00;97887.22;5045400;28;20381;-85
2021/10/07 04:15:02;;;;;;;18.25;9.10;;;;;;;9.72;100.00;97925.53;5039896;28;20029;-87
2021/10/07 04:17:28;;;;;;;15.63;8.77;;;;;;;9.77;100.00;97918.13;5046205;28;20376;-85
2021/10/07 04:19:53;;;;;;;20.70;11.68;;;;;;;9.87;100.00;97921.19;5060590;28;20021;-73
2021/10/07 04:22:19;;;;;;;29.30;12.70;;;;;;;9.92;100.00;97922.66;5062499;28;20115;-84
2021/10/07 04:25:06;;;;;;;46.22;17.25;;;;;;;10.00;99.78;97923.09;5046876;28;20495;-83
2021/10/07 04:27:32;;;;;;;47.30;17.63;;;;;;;10.08;98.99;97918.22;5062001;28;20064;-83
2021/10/07 04:29:59;;;;;;;28.25;12.98;;;;;;;10.08;98.05;97909.34;5057121;28;20083;-84
2021/10/07 04:32:25;;;;;;;26.98;12.73;;;;;;;10.07;97.27;97888.91;5046660;28;20461;-84
2021/10/07 04:34:50;;;;;;;25.95;13.07;;;;;;;10.08;96.64;97878.13;5038292;28;20021;-85
2021/10/07 04:37:16;;;;;;;27.55;11.57;;;;;;;10.10;95.61;97881.56;5052876;28;20040;-84
2021/10/07 04:39:42;;;;;;;27.92;11.55;;;;;;;10.14;95.85;97888.53;5046481;28;20411;-85
2021/10/07 04:42:07;;;;;;;21.17;9.77;;;;;;;10.16;95.85;97893.78;5060639;28;20512;-85
2021/10/07 04:44:33;;;;;;;18.80;9.18;;;;;;;10.23;95.62;97888.00;5057395;28;20110;-84
2021/10/07 04:46:59;;;;;;;29.10;12.25;;;;;;;10.07;95.50;97863.03;5046386;28;20035;-84
2021/10/07 04:49:24;;;;;;;30.83;14.60;;;;;;;10.19;95.82;97874.88;5040957;28;20144;-83
2021/10/07 04:51:50;;;;;;;19.80;9.63;;;;;;;10.43;95.34;97886.06;5045662;28;20029;-84
2021/10/07 04:54:15;;;;;;;21.02;10.88;;;;;;;10.54;94.07;97870.25;5044546;28;20469;-83
2021/10/07 04:56:41;;;;;;;24.40;11.02;;;;;;;10.73;92.87;97881.63;5055054;28;20654;-84
2021/10/07 04:59:06;;;;;;;21.02;10.93;;;;;;;10.88;92.04;97889.66;5059217;28;20035;-73
2021/10/07 05:01:32;;;;;;;24.33;10.75;;;;;;;10.82;92.35;97884.66;5060336;28;20492;-84
2021/10/07 05:03:59;;;;;;;21.75;9.82;;;;;;;10.89;91.91;97879.78;5065632;28;20029;-84
2021/10/07 05:06:25;;;;;;;23.75;10.20;;;;;;;11.12;91.01;97900.75;5052353;28;20388;-84
2021/10/07 05:08:50;;;;;;;32.50;14.50;;;;;;;11.18;90.25;97896.84;5039834;28;20022;-84
2021/10/07 05:11:16;;;;;;;41.10;21.33;;;;;;;11.35;89.02;97894.88;5059889;28;20123;-85
2021/10/07 05:13:41;;;;;;;23.60;11.15;;;;;;;11.54;87.77;97907.16;5061772;28;20079;-84
2021/10/07 05:16:07;;;;;;;47.53;11.10;;;;;;;11.61;87.05;97912.09;5059946;28;20385;-85
2021/10/07 05:18:36;;;;;;;31.42;12.70;;;;;;;11.66;87.00;97901.09;5054607;28;20488;-84
2021/10/07 05:21:01;;;;;;;29.35;13.07;;;;;;;11.75;86.87;97911.28;5068144;28;20082;-85
2021/10/07 05:23:29;;;;;;;27.38;14.35;;;;;;;11.62;87.10;97899.56;5051744;28;20029;-84
2021/10/07 05:25:54;;;;;;;35.05;14.00;;;;;;;11.60;86.63;97885.38;5035141;28;20062;-84
2021/10/07 05:28:20;;;;;;;37.05;14.35;;;;;;;11.56;86.78;97906.16;5035032;28;20123;-84
2021/10/07 05:30:46;;;;;;;47.45;20.80;;;;;;;11.52;87.37;97893.88;5050446;28;20107;-84
2021/10/07 05:33:11;;;;;;;59.45;20.02;;;;;;;11.59;87.09;97910.47;5063062;28;20026;-84
2021/10/07 05:35:37;;;;;;;51.83;22.30;;;;;;;11.76;86.62;97921.03;5071019;28;20016;-84
2021/10/07 05:38:03;;;;;;;73.80;23.27;;;;;;;11.59;86.87;97899.75;5071379;28;20090;-84
2021/10/07 05:40:28;;;;;;;42.65;19.67;;;;;;;11.56;86.52;97894.56;5045460;28;20025;-84
2021/10/07 05:42:54;;;;;;;31.48;15.15;;;;;;;11.42;86.80;97882.00;5039884;28;20044;-85
2021/10/07 05:45:19;;;;;;;26.92;13.15;;;;;;;11.52;86.77;97893.00;5054552;28;20403;-85
2021/10/07 05:47:45;;;;;;;26.58;12.25;;;;;;;11.39;87.20;97883.03;5054235;28;20044;-84
2021/10/07 05:50:12;;;;;;;18.95;9.75;;;;;;;11.56;86.18;97924.03;5037398;28;20067;-85
2021/10/07 05:52:38;;;;;;;20.42;9.18;;;;;;;11.51;86.51;97929.66;5044047;28;20136;-85
2021/10/07 05:55:05;;;;;;;18.08;9.60;;;;;;;11.65;85.82;97935.06;5043225;28;20028;-84
2021/10/07 05:57:30;;;;;;;23.70;11.70;;;;;;;11.74;85.40;97936.34;5051421;28;20068;-85
2021/10/07 05:59:56;;;;;;;31.33;11.00;;;;;;;11.60;85.15;97917.53;5054301;28;20024;-84
2021/10/07 06:02:21;;;;;;;23.90;10.63;;;;;;;11.61;85.27;97920.13;5068321;28;20028;-84
2021/10/07 06:04:47;;;;;;;50.70;14.00;;;;;;;11.52;84.40;97880.50;5059056;28;20120;-85
2021/10/07 06:07:13;;;;;;;21.63;12.35;;;;;;;11.93;84.05;97918.22;5036780;28;20047;-85
2021/10/07 06:09:38;;;;;;;28.17;10.80;;;;;;;12.06;83.77;97931.72;5036749;28;20033;-84
2021/10/07 06:12:04;;;;;;;26.13;11.68;;;;;;;11.95;83.54;97897.53;5036104;28;20104;-84
2021/10/07 06:14:30;;;;;;;22.77;10.80;;;;;;;11.96;84.18;97926.06;5045778;28;20090;-85
2021/10/07 06:16:56;;;;;;;25.13;9.95;;;;;;;11.95;84.66;97905.56;5060007;28;20028;-85
2021/10/07 06:19:23;;;;;;;19.42;9.90;;;;;;;12.21;83.62;97947.69;5040205;28;20021;-85
2021/10/07 06:21:50;;;;;;;26.30;9.93;;;;;;;12.26;83.71;97940.25;5057459;28;20025;-86
2021/10/07 06:24:16;;;;;;;19.92;9.75;;;;;;;12.14;82.82;97892.75;5042246;28;20116;-85
2021/10/07 06:26:42;;;;;;;18.85;9.80;;;;;;;12.47;81.78;97924.63;5043510;28;20029;-87
2021/10/07 06:29:08;;;;;;;17.08;9.57;;;;;;;12.38;81.78;97928.75;5050822;28;20395;-84
2021/10/07 06:31:34;;;;;;;22.92;10.90;;;;;;;12.39;81.85;97922.44;5078951;28;20123;-86
2021/10/07 06:34:00;;;;;;;21.85;9.73;;;;;;;12.61;81.19;97938.03;5053798;28;20468;-86
2021/10/07 06:36:26;;;;;;;21.77;8.88;;;;;;;12.64;80.93;97939.66;5085980;28;20048;-84
2021/10/07 06:38:51;;;;;;;28.00;14.57;;;;;;;12.65;80.42;97927.94;5053400;28;20033;-85
2021/10/07 06:41:17;;;;;;;18.23;8.60;;;;;;;12.77;79.30;97949.50;5039224;28;20021;-84
2021/10/07 06:43:43;;;;;;;23.17;8.68;;;;;;;12.71;79.31;97932.91;5037868;28;20025;-85
2021/10/07 06:46:09;;;;;;;20.08;8.80;;;;;;;12.97;78.61;97964.31;5042478;28;20017;-87
2021/10/07 06:48:35;;;;;;;13.23;8.25;;;;;;;13.07;77.17;97933.22;5059053;28;20181;-85
2021/10/07 06:51:02;;;;;;;15.27;7.85;;;;;;;13.35;76.45;97949.25;5034640;28;20028;-85
2021/10/07 06:53:28;;;;;;;18.77;7.15;;;;;;;13.35;76.06;97953.78;5071337;28;20139;-85
2021/10/07 06:55:54;;;;;;;18.15;6.65;;;;;;;13.39;75.22;97949.91;5054729;28;20382;-86
2021/10/07 06:58:19;;;;;;;14.88;5.88;;;;;;;13.40;75.02;97938.22;5044478;28;20039;-85
2021/10/07 07:00:45;;;;;;;12.23;5.95;;;;;;;13.32;74.09;97933.34;5051365;28;20029;-85
2021/10/07 07:03:11;;;;;;;8.63;6.18;;;;;;;13.32;74.45;97938.72;5053613;28;20450;-84
2021/10/07 07:05:37;;;;;;;11.27;6.68;;;;;;;13.16;74.45;97915.66;5048361;28;20415;-85
2021/10/07 07:08:03;;;;;;;20.70;6.18;;;;;;;13.45;75.04;97957.56;5050581;28;20029;-85
2021/10/07 07:10:28;;;;;;;14.80;6.32;;;;;;;13.74;73.87;97966.38;5036240;28;20052;-85
2021/10/07 07:12:54;;;;;;;20.67;6.32;;;;;;;13.76;73.36;97942.91;5033830;28;20037;-86
2021/10/07 07:15:20;;;;;;;12.35;6.70;;;;;;;13.98;73.23;97953.94;5050487;28;20021;-86
2021/10/07 07:17:47;;;;;;;18.45;6.65;;;;;;;14.32;71.33;97969.44;5033653;28;20028;-86
2021/10/07 07:20:13;;;;;;;13.80;7.13;;;;;;;14.35;70.44;97969.25;5058284;28;20077;-86
2021/10/07 07:22:39;;;;;;;9.65;6.18;;;;;;;14.39;70.20;97965.41;5050409;28;20040;-86
2021/10/07 07:25:05;;;;;;;10.25;6.43;;;;;;;14.42;69.24;97957.09;5045436;28;20457;-86
2021/10/07 07:27:31;;;;;;;12.93;6.70;;;;;;;14.58;68.35;97952.34;5034135;28;20078;-86
2021/10/07 07:29:57;;;;;;;11.55;6.82;;;;;;;14.76;68.72;97973.53;5034020;28;20029;-85
2021/10/07 07:32:23;;;;;;;19.10;6.20;;;;;;;13.98;69.14;97917.13;5033767;28;20017;-87
2021/10/07 07:34:49;;;;;;;9.40;5.43;;;;;;;14.54;67.95;97975.09;5041625;28;20028;-86
2021/10/07 07:37:14;;;;;;;20.40;6.53;;;;;;;14.70;69.24;97973.97;5050960;28;20118;-85
2021/10/07 07:39:40;;;;;;;24.00;6.60;;;;;;;14.88;67.37;97953.78;5045930;28;20466;-85
2021/10/07 07:42:06;;;;;;;17.65;8.00;;;;;;;15.00;67.85;97972.63;5052769;28;20561;-86
2021/10/07 07:44:32;;;;;;;12.85;6.03;;;;;;;15.06;67.13;97984.78;5045034;28;20111;-85
2021/10/07 07:46:57;;;;;;;16.02;7.00;;;;;;;14.99;66.93;97946.66;5051743;28;20036;-85
2021/10/07 07:49:23;;;;;;;14.23;6.55;;;;;;;15.16;66.52;97975.06;5068273;28;20448;-85
2021/10/07 07:51:49;;;;;;;19.55;8.75;;;;;;;15.29;65.57;97983.94;5033703;28;20533;-85
2021/10/07 07:54:15;;;;;;;14.05;5.90;;;;;;;15.03;66.57;97968.84;5042030;28;20107;-85
2021/10/07 07:56:40;;;;;;;17.55;6.03;;;;;;;15.02;67.00;97988.66;5040942;28;20117;-86
2021/10/07 07:59:08;;;;;;;13.05;5.82;;;;;;;15.37;65.98;97995.03;5034020;28;20481;-86
2021/10/07 08:01:37;;;;;;;32.17;14.85;;;;;;;15.37;65.92;97986.94;5033433;28;20064;-86
2021/10/07 08:04:06;;;;;;;17.73;10.02;;;;;;;15.47;65.37;97985.31;5062965;28;20024;-86
2021/10/07 08:06:32;;;;;;;27.48;7.68;;;;;;;15.62;64.41;97988.72;5034490;28;20025;-86
2021/10/07 08:08:58;;;;;;;14.52;7.38;;;;;;;15.31;65.01;97987.41;5033221;28;20029;-86
2021/10/07 08:11:24;;;;;;;21.02;9.10;;;;;;;15.54;64.88;97991.09;5051699;28;20452;-85
2021/10/07 08:13:50;;;;;;;12.88;6.07;;;;;;;15.23;65.44;98003.25;5036744;28;20052;-85
2021/10/07 08:16:15;;;;;;;20.50;7.22;;;;;;;15.31;66.42;97989.22;5070020;28;20025;-85
2021/10/07 08:18:41;;;;;;;16.90;6.75;;;;;;;15.24;65.59;98002.28;5045268;28;20028;-86
2021/10/07 08:21:06;;;;;;;14.63;6.57;;;;;;;15.52;65.81;97991.22;5045110;28;20075;-86
2021/10/07 08:23:35;;;;;;;14.35;5.35;;;;;;;15.63;63.96;97995.81;5052230;28;20043;-86
2021/10/07 08:26:01;;;;;;;16.40;5.38;;;;;;;15.66;64.19;98009.06;5057174;28;20025;-86
2021/10/07 08:28:27;;;;;;;20.45;5.68;;;;;;;15.85;63.40;97995.03;5043037;28;20089;-86
2021/10/07 08:30:53;;;;;;;18.85;6.50;;;;;;;15.41;63.99;97957.94;5048813;28;20119;-86
2021/10/07 08:33:18;;;;;;;13.27;5.38;;;;;;;15.85;63.40;97995.91;5065689;28;20045;-86
2021/10/07 08:35:44;;;;;;;14.63;5.45;;;;;;;15.87;63.36;97991.28;5053988;28;20012;-86
2021/10/07 08:38:10;;;;;;;16.55;5.53;;;;;;;15.97;63.65;97988.72;5070954;28;20391;-86
2021/10/07 08:40:36;;;;;;;9.10;4.60;;;;;;;15.39;64.14;97936.47;5056242;28;20036;-86
2021/10/07 08:43:02;;;;;;;16.35;5.20;;;;;;;15.66;64.35;97980.25;5053847;28;20049;-86
2021/10/07 08:45:29;;;;;;;15.95;6.47;;;;;;;15.60;64.67;97972.63;5053075;28;20373;-85
2021/10/07 08:47:55;;;;;;;13.35;6.05;;;;;;;15.19;66.15;97980.22;5059809;28;20025;-85
2021/10/07 08:50:22;;;;;;;9.00;5.43;;;;;;;14.98;66.01;97946.78;5071606;28;20492;-86
2021/10/07 08:52:48;;;;;;;10.95;5.05;;;;;;;15.24;66.50;98001.44;5049211;28;20095;-85
2021/10/07 08:55:14;;;;;;;10.75;5.30;;;;;;;14.81;66.32;97945.31;5051826;28;20020;-85
2021/10/07 08:57:40;;;;;;;12.10;5.43;;;;;;;15.18;66.77;97987.44;5053913;28;20038;-85
2021/10/07 09:00:08;;;;;;;12.95;6.32;;;;;;;15.36;66.31;97974.44;5072101;28;20028;-86
2021/10/07 09:02:34;;;;;;;10.15;5.47;;;;;;;15.04;66.93;97984.88;5047507;28;20059;-85
2021/10/07 09:05:12;;;;;;;12.88;5.38;;;;;;;15.06;66.49;97950.63;5047433;28;20052;-85
2021/10/07 09:08:06;;;;;;;14.13;6.00;;;;;;;15.08;66.03;97993.59;5047741;28;20031;-85
2021/10/07 09:10:46;;;;;;;12.93;5.22;;;;;;;14.90;67.43;98000.34;5055756;28;20659;-85
2021/10/07 09:13:22;;;;;;;18.38;5.75;;;;;;;15.06;67.71;98014.44;5048061;28;20502;-86
2021/10/07 09:15:57;;;;;;;16.77;5.90;;;;;;;15.03;66.61;97976.94;5055972;28;20039;-87
2021/10/07 09:18:26;;;;;;;9.82;5.60;;;;;;;14.99;66.18;97940.41;5049610;28;20079;-86
2021/10/07 09:20:54;;;;;;;10.60;5.40;;;;;;;15.45;65.32;97973.75;5039345;28;20028;-86
2021/10/07 09:23:30;;;;;;;10.02;5.30;;;;;;;15.93;63.93;97995.34;5064841;28;20036;-87
2021/10/07 09:26:04;;;;;;;9.65;5.20;;;;;;;15.98;63.25;98002.09;5035026;28;20040;-86
2021/10/07 09:28:50;;;;;;;12.27;5.05;;;;;;;15.91;63.39;97989.19;5053012;28;20028;-87
2021/10/07 09:31:23;;;;;;;14.65;5.60;;;;;;;16.04;63.49;97992.66;5071362;28;20033;-87
2021/10/07 09:33:53;;;;;;;18.50;5.40;;;;;;;16.14;63.09;97999.09;5069518;28;20060;-86
2021/10/07 09:36:20;;;;;;;22.15;5.63;;;;;;;16.17;62.23;97977.25;5034747;28;20020;-86
2021/10/07 09:38:48;;;;;;;14.82;6.03;;;;;;;16.53;61.56;97995.13;5053267;28;20120;-86
2021/10/07 09:41:33;;;;;;;16.00;5.70;;;;;;;16.52;60.68;97947.50;5055135;28;20024;-85
2021/10/07 09:44:01;;;;;;;11.52;5.40;;;;;;;16.67;60.16;97971.44;5055331;28;20028;-86
2021/10/07 09:46:48;;;;;;;10.80;4.95;;;;;;;16.47;61.22;98004.56;5058846;28;20408;-86
2021/10/07 09:49:19;;;;;;;21.48;7.32;;;;;;;16.46;61.89;98000.13;5034938;28;20024;-86
2021/10/07 09:51:51;;;;;;;15.25;5.88;;;;;;;16.45;61.32;98008.38;5041863;28;20028;-86
2021/10/07 09:54:25;;;;;;;18.55;5.53;;;;;;;16.38;61.98;98005.28;5039411;28;20052;-85
2021/10/07 09:56:54;;;;;;;21.05;4.80;;;;;;;16.17;62.29;97998.84;5049359;28;20401;-85
2021/10/07 09:59:19;;;;;;;13.07;4.88;;;;;;;15.97;62.43;98007.59;5034196;28;20024;-86
2021/10/07 10:01:45;;;;;;;9.45;4.75;;;;;;;15.66;63.22;97974.88;5035018;28;20032;-86
2021/10/07 10:04:11;;;;;;;11.45;4.78;;;;;;;16.17;62.62;97993.47;5044752;28;20547;-86
2021/10/07 10:06:37;;;;;;;10.77;4.82;;;;;;;16.38;61.08;97980.13;5051932;28;20400;-86
2021/10/07 10:09:02;;;;;;;11.20;4.90;;;;;;;16.66;59.84;97985.09;5051453;28;20116;-86
2021/10/07 10:11:28;;;;;;;15.85;4.95;;;;;;;16.73;59.09;97965.56;5067061;28;20033;-85
2021/10/07 10:13:54;;;;;;;15.40;5.15;;;;;;;16.70;59.58;97965.81;5041762;28;20020;-85
2021/10/07 10:16:20;;;;;;;8.52;5.05;;;;;;;16.99;58.46;97973.41;5044001;28;20025;-86
2021/10/07 10:18:53;;;;;;;22.85;6.35;;;;;;;16.81;59.32;97978.47;5048838;28;20032;-86
2021/10/07 10:21:21;;;;;;;14.20;4.55;;;;;;;16.75;59.51;97987.94;5049006;28;20484;-86
2021/10/07 10:23:47;;;;;;;16.88;4.47;;;;;;;16.70;59.34;97965.81;5051414;28;20031;-86
2021/10/07 10:26:13;;;;;;;12.68;5.03;;;;;;;17.00;58.86;97988.66;5071066;28;20021;-86
2021/10/07 10:28:39;;;;;;;8.45;4.70;;;;;;;17.24;57.85;97987.53;5041189;28;20055;-86
2021/10/07 10:31:08;;;;;;;7.15;4.43;;;;;;;16.99;57.73;97949.09;5068406;28;20020;-86
2021/10/07 10:33:36;;;;;;;11.93;4.20;;;;;;;17.40;57.10;97983.56;5053406;28;20539;-86
2021/10/07 10:36:02;;;;;;;8.60;4.97;;;;;;;17.53;56.80;97970.75;5055178;28;20092;-86
2021/10/07 10:38:28;;;;;;;16.52;4.93;;;;;;;17.45;56.50;97952.44;5040039;28;20471;-85
2021/10/07 10:40:56;;;;;;;11.10;4.80;;;;;;;17.56;56.75;97971.38;5071043;28;20033;-86
2021/10/07 10:43:26;;;;;;;8.50;4.00;;;;;;;17.31;56.91;97958.16;5043669;28;20041;-86
2021/10/07 10:45:51;;;;;;;6.95;4.10;;;;;;;17.61;57.00;97969.16;5062480;28;20028;-85
2021/10/07 10:48:51;;;;;;;15.13;4.25;;;;;;;17.47;57.11;97958.59;5065384;28;20021;-87
2021/10/07 10:51:18;;;;;;;12.45;3.97;;;;;;;17.74;55.98;97952.75;5035169;28;20042;-85
2021/10/07 10:53:56;;;;;;;9.23;4.00;;;;;;;17.80;55.68;97946.81;5050867;28;20482;-86
2021/10/07 10:56:22;;;;;;;16.88;5.30;;;;;;;17.96;55.34;97966.19;5050564;28;20024;-88
2021/10/07 10:58:54;;;;;;;5.53;3.47;;;;;;;17.78;55.47;97965.88;5039517;28;20032;-87
2021/10/07 11:01:20;;;;;;;9.43;4.13;;;;;;;17.68;55.34;97961.38;5068381;28;20023;-87
2021/10/07 11:03:48;;;;;;;25.38;12.27;;;;;;;17.46;55.75;97924.41;5043840;28;20120;-87
2021/10/07 11:06:14;;;;;;;12.10;3.85;;;;;;;17.78;55.84;97965.03;5053922;28;20455;-86
2021/10/07 11:08:43;;;;;;;11.02;5.32;;;;;;;17.40;56.72;97960.09;5042543;28;20055;-86
2021/10/07 11:11:25;;;;;;;9.73;4.43;;;;;;;17.21;56.45;97887.75;5055455;28;20086;-88
2021/10/07 11:13:51;;;;;;;;;;;;;;;17.70;56.12;97946.72;5054299;28;20029;-87
2021/10/07 11:16:18;;;;;;;10.70;3.95;;;;;;;17.63;56.34;97956.34;5040572;28;19909;-87
2021/10/07 11:18:45;;;;;;;10.93;5.30;;;;;;;17.65;56.37;97959.81;5054016;28;20115;-87
2021/10/07 11:21:16;;;;;;;13.00;4.50;;;;;;;17.45;57.67;97935.34;5038794;28;20025;-86
2021/10/07 11:23:46;;;;;;;8.57;4.82;;;;;;;17.54;56.77;97948.97;5043334;28;20094;-86
2021/10/07 11:26:12;;;;;;;13.52;5.47;;;;;;;17.29;57.50;97936.63;5051637;28;20086;-87
2021/10/07 11:28:41;;;;;;;8.40;4.38;;;;;;;17.09;57.68;97947.38;5034634;28;20029;-86
2021/10/07 11:31:10;;;;;;;13.07;4.65;;;;;;;16.71;59.13;97943.22;5054852;28;20087;-87